Norwood, Virginia
Current Conditions -  °F | °C
As of 4:15 AM on Wednesday 28 Jan 2015 (Local Time) from KFVX Reporting Station
Scattered Clouds Scattered Clouds  
Wind Chill: 28°   Ceiling: Unl
Heat Index: 28°   Visibility: 10mi
Dew Point: 16°   Wind: 3mph
Humidity: 60%   Direction: 350°N
Pressure: 30.06"   Gusts: NA
Location:  37.64°N, 78.81°W
Report Text: KFVX 280915Z AUTO 35003KT 10SM SCT080 M02/M09 A3006 RMK AO2 T10221090
Loading
Personal Weather Stations






























Interactive Weather Map New forecast layout! Learn more

10-Day Weather Forecast

Advertisements
Track Severe Weather on mobile